Terminal Aerodrome Forecast
Issued by NWS Albany, NY

Home | Current Version | Previous Version | Text Only | Print | Product List | Glossary On
Versions: 1 2 3 4 5 6 7 8 9 10 11 12 13 14 15 16 17 18 19 20 21 22 23
046
FTUS41 KALY 191153 CCA
TAFGFL
TAF COR
KGFL 191153Z 1912/2012 22007KT 3SM -SHRA BR SCT007 OVC015
     FM191300 23014G28KT P6SM VCSH BKN015 OVC025
     FM191700 26019G35KT P6SM BKN045
     FM192200 27013G23KT P6SM BKN050
     FM200300 26012KT P6SM BKN050=

USA.gov is the U.S. government's official web portal to all federal, state and local government web resources and services.